Hampton, NH (03842)

8:35 AM EST on December 06, 2016 (GMT -0500)
Towle Farm | | Change Station

Elev 56 ft 42.94 °N, 70.85 °W | Updated 27 seconds ago

Clear
Clear
30.2 °F
Feels Like 30 °F
N
0.0
Wind Variable Wind from SSW
Gusts 3.0 mph

Today
High -- | Low -- °F
--% Chance of Precip.
Yesterday
High -- | Low -- °F
Precip. -- in
Pressure 30.10 in
Visibility 10.0 miles
Clouds Clear
Windchill 30 °F
Dew Point 29 °F
Humidity 96%
Rainfall 0.00 in
Snow Depth Not available.
7:00 AM 4:08 PM
Waxing Crescent, 41% visible
METAR KPSM 061258Z 26007KT 10SM CLR M01/M03 A3009 RMK AO2A SLP193 T10151035 CHINO RWY16 $
Pressure 30.10 in
Visibility 10.0 miles
Clouds Clear
Windchill 30 °F
Dew Point 29 °F
Humidity 96%
Rainfall 0.00 in
Snow Depth Not available.
7:00 AM 4:08 PM
Waxing Crescent, 41% visible
METAR KPSM 061258Z 26007KT 10SM CLR M01/M03 A3009 RMK AO2A SLP193 T10151035 CHINO RWY16 $

10-Day Weather Forecast

Almanac

Astronomy

Dec. 06, 2016 Rise Set
Actual Time
Civil Twilight
Nautical Twilight
Astronomical Twilight
Moon
Length of Visible Light
Length of Day
Tomorrow will be .
, % of the Moon is Illuminated

Today's Extremes

State Highs State Lows

Community

WunderPhotos

Upload Photos

1,955,945 photos uploaded!

WunderBlog® & News

Nearby

Air Quality

  Air Quality AQ Index Pollutant
Not available.

Snow Depth

Station Depth Elevation

Earthquake Activity

City Distance Mag. Time & Date
Minimum magnitude displayed is 2.5.

Coastal Water Temperatures

Place Temperature

Stations

Nearby Weather Stations

Station Location Temp. Windchill Dew Point Humidity Wind Precip. Elev Updated Type
                   

Watches & Warnings

There are currently no watches in effect.